Gustavsfors, Sweden

7:45 PM CEST on September 23, 2014 (GMT +0200)
Jonsarna, Ransbysatter, Varmland, Sweden | Change Station
CLOSE
Current Station
Personal Weather Station
Location: Värmland County, VäRMLAND COUNTY
Elevation: 427 ft
Nearby Weather Stations

Elev 427 ft 60.03 °N, 13.24 °E | Updated 3 minutes ago

Clear
Clear
41.9 °F
Feels Like 42 °F
N
2.0
Wind Variable Wind from NE
Gusts 3.0 mph

Today
High -- | Low -- °F
--% Chance of Precip.
Yesterday
High -- | Low -- °F
Precip. -- in
6:50 AM 7:02 PM
Waning Crescent, 0% visible
Pressure 29.92 in
Visibility -9999.0 miles
Clouds
Windchill 42 °F
Dew Point 34 °F
Humidity 73%
Rainfall 0.00 in
Snow Depth Not available.
UV 0.0 out of 12
Pollen Not available.
Air Quality Not available.
Flu Activity Not available.
METAR ESOK 231720Z 09007KT CAVOK 06/01 Q1013

More Conditions Fewer Conditions

Pressure 29.92 in
Visibility -9999.0 miles
Clouds
Windchill 42 °F
Dew Point 34 °F
Humidity 73%
Rainfall 0.00 in
Snow Depth Not available.
UV 0.0 out of 12
Pollen Not available.
Air Quality Not available.
Flu Activity Not available.
METAR ESOK 231720Z 09007KT CAVOK 06/01 Q1013

More Conditions Fewer Conditions

10-Day Weather Forecast

Almanac

Astronomy

Sep. 23, 2014 Rise Set
Actual Time 6:50 AM CEST 7:02 PM CEST
Civil Twilight 6:09 AM CEST 7:43 PM CEST
Nautical Twilight 5:18 AM CEST 8:33 PM CEST
Astronomical Twilight 4:23 AM CEST 9:28 PM CEST
Moon 5:53 AM CEST 6:31 PM CEST
Length of Visible Light 13h 34m
Length of Day
12h 11m
Tomorrow will be 5m 25s shorter.
Waning Crescent, 0% of the Moon is Illuminated
Today
Waning Crescent
Sep 24
New
Oct 1
First Quarter
Oct 8
Full
Oct 15
Last Quarter

Today's Extremes

Country Highs Country Lows

Community

WunderPhotos

Upload Photos

1,755,758 photos uploaded!

WunderBlogs® & News

Nearby

Snow Depth

Not available.

Earthquake Activity

City Distance Mag. Time & Date
No recent earthquake activity has been reported nearby.
Minimum magnitude displayed is 2.5.

Coastal Water Temperatures

Place Temperature
No Stations Reporting

Nearby Weather Stations